createdAt,value
2022-09-28T00:00:40.784Z,83.70
2022-09-28T00:03:13.897Z,83.57
2022-09-28T00:05:42.330Z,83.74
2022-09-28T00:08:23.500Z,83.85
2022-09-28T00:10:57.144Z,83.62
2022-09-28T00:13:25.836Z,83.80
2022-09-28T00:16:01.722Z,83.54
2022-09-28T00:18:35.094Z,83.79
2022-09-28T00:21:04.969Z,83.64
2022-09-28T00:23:34.157Z,83.66
2022-09-28T00:26:06.379Z,83.79
2022-09-28T00:28:34.815Z,84.03
2022-09-28T00:31:03.297Z,83.75
2022-09-28T00:33:38.059Z,83.54
2022-09-28T00:36:06.729Z,83.64
2022-09-28T00:38:35.304Z,83.56
2022-09-28T00:41:05.544Z,83.54
2022-09-28T00:43:34.151Z,83.61
2022-09-28T00:46:06.185Z,83.70
2022-09-28T00:48:39.654Z,83.51
2022-09-28T00:51:11.635Z,83.64
2022-09-28T00:53:44.710Z,83.74
2022-09-28T00:56:19.176Z,83.81
2022-09-28T00:58:51.256Z,84.03
2022-09-28T01:01:20.819Z,84.10
2022-09-28T01:03:50.953Z,83.73
2022-09-28T01:06:22.312Z,84.45
2022-09-28T01:08:54.385Z,84.00
2022-09-28T01:11:27.034Z,83.99
2022-09-28T01:14:00.750Z,84.09
2022-09-28T01:16:43.616Z,84.00
2022-09-28T01:20:11.444Z,84.38
2022-09-28T01:23:19.194Z,84.33
2022-09-28T01:25:58.669Z,84.21
2022-09-28T01:28:30.256Z,84.35
2022-09-28T01:31:07.545Z,84.27
2022-09-28T01:33:41.386Z,84.04
2022-09-28T01:36:14.619Z,84.19
2022-09-28T01:38:48.692Z,83.73
2022-09-28T01:41:21.111Z,84.28
2022-09-28T01:43:56.984Z,83.98
2022-09-28T01:46:30.545Z,84.36
2022-09-28T01:49:00.160Z,84.10
2022-09-28T01:51:43.229Z,84.26
2022-09-28T01:54:14.850Z,84.24
2022-09-28T01:56:56.369Z,83.96
2022-09-28T01:59:33.832Z,84.11
2022-09-28T02:02:07.634Z,83.94
2022-09-28T02:04:42.237Z,83.72
2022-09-28T02:07:15.671Z,83.91
2022-09-28T02:09:47.780Z,83.91
2022-09-28T02:12:21.839Z,83.85
2022-09-28T02:14:56.791Z,83.85
2022-09-28T02:17:25.179Z,83.93
2022-09-28T02:19:53.494Z,83.74
2022-09-28T02:22:31.782Z,83.72
2022-09-28T02:25:04.625Z,83.79
2022-09-28T02:27:37.665Z,83.85
2022-09-28T02:30:09.048Z,83.50
2022-09-28T02:32:42.634Z,83.13
2022-09-28T02:35:13.878Z,83.12
2022-09-28T02:37:42.685Z,82.82
2022-09-28T02:40:15.471Z,82.90
2022-09-28T02:42:55.347Z,82.68
2022-09-28T02:45:38.500Z,82.48
2022-09-28T02:48:27.184Z,82.38
2022-09-28T02:51:12.121Z,82.13
2022-09-28T02:54:13.448Z,81.84
2022-09-28T02:57:20.785Z,81.45
2022-09-28T02:59:57.153Z,81.74
2022-09-28T03:02:33.628Z,81.58
2022-09-28T03:05:12.494Z,81.61
2022-09-28T03:07:46.954Z,81.32
2022-09-28T03:10:18.478Z,81.47
2022-09-28T03:12:49.312Z,81.88
2022-09-28T03:15:25.236Z,81.40
2022-09-28T03:17:57.312Z,81.54
2022-09-28T03:20:26.501Z,81.65
2022-09-28T03:23:19.732Z,81.62
2022-09-28T03:25:43.319Z,81.56
2022-09-28T03:28:11.525Z,81.44
2022-09-28T03:30:43.534Z,81.55
2022-09-28T03:33:13.647Z,81.67
2022-09-28T03:35:42.056Z,81.55
2022-09-28T03:38:11.094Z,81.38
2022-09-28T03:40:40.087Z,81.80
2022-09-28T03:43:08.463Z,81.52
2022-09-28T03:45:37.037Z,81.61
2022-09-28T03:48:05.688Z,81.61
2022-09-28T03:50:36.985Z,81.51
2022-09-28T03:53:06.127Z,81.49
2022-09-28T03:55:34.445Z,81.61
2022-09-28T03:58:03.104Z,81.54
2022-09-28T04:00:31.353Z,81.45
2022-09-28T04:02:59.768Z,81.32
2022-09-28T04:05:28.784Z,81.28
2022-09-28T04:07:58.879Z,81.44
2022-09-28T04:10:28.042Z,81.33
2022-09-28T04:12:57.049Z,81.27
2022-09-28T04:15:25.627Z,81.35
2022-09-28T04:17:54.107Z,81.46
2022-09-28T04:20:45.560Z,81.60
2022-09-28T04:23:16.120Z,81.30
2022-09-28T04:25:48.768Z,81.57
2022-09-28T04:28:36.908Z,81.13
2022-09-28T04:31:05.318Z,81.22
2022-09-28T04:33:33.615Z,81.21
2022-09-28T04:36:02.307Z,81.29
2022-09-28T04:38:51.815Z,81.34
2022-09-28T04:41:22.937Z,81.50
2022-09-28T04:43:52.033Z,81.36
2022-09-28T04:46:21.374Z,81.15
2022-09-28T04:48:58.100Z,81.38
2022-09-28T04:51:39.367Z,81.48
2022-09-28T04:54:08.993Z,81.78
2022-09-28T04:56:39.640Z,81.53
2022-09-28T04:59:08.149Z,81.36
2022-09-28T05:01:37.849Z,81.21
2022-09-28T05:04:26.356Z,81.40
2022-09-28T05:07:05.930Z,81.23
2022-09-28T05:09:38.406Z,81.20
2022-09-28T05:12:07.514Z,81.24
2022-09-28T05:14:35.874Z,81.27
2022-09-28T05:17:05.794Z,81.06
2022-09-28T05:19:54.330Z,81.14
2022-09-28T05:22:22.762Z,81.05
2022-09-28T05:24:52.606Z,81.10
2022-09-28T05:27:20.896Z,80.88
2022-09-28T05:29:58.947Z,81.01
2022-09-28T05:32:46.018Z,81.20
2022-09-28T05:35:27.673Z,80.91
2022-09-28T05:37:56.137Z,80.72
2022-09-28T05:40:26.388Z,80.81
2022-09-28T05:42:54.760Z,80.76
2022-09-28T05:45:23.272Z,80.78
2022-09-28T05:47:52.074Z,80.91
2022-09-28T05:50:22.725Z,80.46
2022-09-28T05:53:04.520Z,80.47
2022-09-28T05:55:35.090Z,80.73
2022-09-28T05:58:08.063Z,80.70
2022-09-28T06:00:37.398Z,80.63
2022-09-28T06:03:09.156Z,80.34
2022-09-28T06:05:39.480Z,81.00
2022-09-28T06:08:10.497Z,80.42
2022-09-28T06:10:44.996Z,80.60
2022-09-28T06:13:17.000Z,80.37
2022-09-28T06:15:46.438Z,80.31
2022-09-28T06:18:36.927Z,80.11
2022-09-28T06:21:20.846Z,80.20
2022-09-28T06:24:23.178Z,80.15
2022-09-28T06:30:54.178Z,80.43
2022-09-28T06:33:35.950Z,80.13
2022-09-28T06:36:09.990Z,80.55
2022-09-28T06:38:42.041Z,80.64
2022-09-28T06:41:12.982Z,80.74
2022-09-28T06:43:49.509Z,80.64
2022-09-28T06:46:38.394Z,81.04
2022-09-28T06:49:30.359Z,80.86
2022-09-28T06:52:15.289Z,81.00
2022-09-28T06:55:06.587Z,80.97
2022-09-28T06:57:45.556Z,81.03
2022-09-28T07:00:18.580Z,80.98
2022-09-28T07:02:48.352Z,80.72
2022-09-28T07:05:48.276Z,80.81
2022-09-28T07:08:39.658Z,80.85
2022-09-28T07:11:46.749Z,80.86
2022-09-28T07:14:47.381Z,80.89
2022-09-28T07:17:18.437Z,80.51
2022-09-28T07:19:46.772Z,80.44
2022-09-28T07:22:18.948Z,80.56
2022-09-28T07:24:49.849Z,80.50
2022-09-28T07:27:41.541Z,80.63
2022-09-28T07:30:36.151Z,80.20
2022-09-28T07:33:18.452Z,80.23
2022-09-28T07:35:55.359Z,80.34
2022-09-28T07:38:30.352Z,80.34
2022-09-28T07:41:14.926Z,80.11
2022-09-28T07:43:49.904Z,79.84
2022-09-28T07:46:18.258Z,79.61
2022-09-28T07:48:58.334Z,78.95
2022-09-28T07:51:50.227Z,78.69
2022-09-28T07:54:31.456Z,78.54
2022-09-28T07:57:17.361Z,78.86
2022-09-28T07:59:53.722Z,78.06
2022-09-28T08:02:43.408Z,78.03
2022-09-28T08:05:15.792Z,77.47
2022-09-28T08:07:45.062Z,77.32
2022-09-28T08:10:14.229Z,76.75
2022-09-28T08:13:06.491Z,75.85
2022-09-28T08:15:59.638Z,75.38
2022-09-28T08:18:44.657Z,75.14
2022-09-28T08:21:31.547Z,75.12
2022-09-28T08:23:59.931Z,74.82
2022-09-28T08:26:29.216Z,74.86
2022-09-28T08:33:01.298Z,75.27
2022-09-28T08:36:11.327Z,75.35
2022-09-28T08:39:08.530Z,75.50
2022-09-28T08:42:15.865Z,75.06
2022-09-28T08:49:23.840Z,75.55
2022-09-28T08:52:41.345Z,75.48
2022-09-28T08:55:37.420Z,75.00
2022-09-28T08:58:45.647Z,72.56
2022-09-28T09:02:37.149Z,71.92
2022-09-28T09:10:20.088Z,72.98
2022-09-28T09:17:43.734Z,71.18
2022-09-28T09:38:23.268Z,65.81
2022-09-28T09:41:42.944Z,65.89
2022-09-28T09:45:14.619Z,66.10
2022-09-28T09:48:08.701Z,66.52
2022-09-28T09:51:20.816Z,66.09
2022-09-28T09:53:59.814Z,67.07
2022-09-28T09:56:44.554Z,66.78
2022-09-28T09:59:52.075Z,67.62
2022-09-28T10:02:48.417Z,67.14
2022-09-28T10:05:48.668Z,66.42
2022-09-28T10:08:26.353Z,67.36
2022-09-28T10:11:10.720Z,65.88
2022-09-28T10:14:01.098Z,64.83
2022-09-28T10:16:56.478Z,65.57
2022-09-28T10:19:46.138Z,66.38
2022-09-28T10:22:38.433Z,66.56
2022-09-28T10:25:14.166Z,66.76
2022-09-28T10:27:46.570Z,64.44
2022-09-28T10:30:19.559Z,64.12
2022-09-28T10:32:50.524Z,64.68
2022-09-28T10:35:25.049Z,65.11
2022-09-28T10:38:01.839Z,64.32
2022-09-28T10:40:54.475Z,64.95
2022-09-28T10:44:06.341Z,66.17
2022-09-28T10:47:11.433Z,67.08
2022-09-28T10:49:47.270Z,68.57
2022-09-28T10:52:39.898Z,70.11
2022-09-28T10:55:29.248Z,71.06
2022-09-28T10:57:58.443Z,70.85
2022-09-28T11:00:40.234Z,70.98
2022-09-28T11:03:22.144Z,71.16
2022-09-28T11:05:59.290Z,71.22
2022-09-28T11:08:31.634Z,71.39
2022-09-28T11:11:08.713Z,70.51
2022-09-28T11:13:46.115Z,69.68
2022-09-28T11:16:29.431Z,68.90
2022-09-28T11:18:59.316Z,68.18
2022-09-28T11:21:31.243Z,67.90
2022-09-28T11:24:09.474Z,68.21
2022-09-28T11:26:44.837Z,68.32
2022-09-28T11:29:35.021Z,68.88
2022-09-28T11:32:41.492Z,68.25
2022-09-28T11:35:30.525Z,66.47
2022-09-28T11:38:16.219Z,65.68
2022-09-28T11:41:38.631Z,61.85
2022-09-28T11:44:23.084Z,61.38
2022-09-28T11:47:20.101Z,60.87
2022-09-28T11:49:56.311Z,59.87
2022-09-28T11:52:32.501Z,59.50
2022-09-28T11:55:07.901Z,59.60
2022-09-28T11:57:39.819Z,59.52
2022-09-28T12:00:15.676Z,58.69
2022-09-28T12:02:56.426Z,57.09
2022-09-28T12:05:31.678Z,58.61
2022-09-28T12:08:05.882Z,58.82
2022-09-28T12:11:00.911Z,58.33
2022-09-28T12:13:51.643Z,58.87
2022-09-28T12:16:53.552Z,58.66
2022-09-28T12:19:22.687Z,57.43
2022-09-28T12:22:14.908Z,56.69
2022-09-28T12:24:52.873Z,58.10
2022-09-28T12:27:33.572Z,57.92
2022-09-28T12:30:06.505Z,55.88
2022-09-28T12:32:40.306Z,56.68
2022-09-28T12:35:14.689Z,56.54
2022-09-28T12:38:04.333Z,57.41
2022-09-28T12:40:49.536Z,56.45
2022-09-28T12:43:46.604Z,56.88
2022-09-28T12:46:38.260Z,58.80
2022-09-28T12:50:33.389Z,59.09
2022-09-28T12:52:31.586Z,58.32
2022-09-28T12:55:18.534Z,57.54
2022-09-28T12:58:08.616Z,56.49
2022-09-28T13:00:43.694Z,58.03
2022-09-28T13:03:35.614Z,58.46
2022-09-28T13:06:24.128Z,59.16
2022-09-28T13:09:31.647Z,57.30
2022-09-28T13:12:57.940Z,56.20
2022-09-28T13:16:05.014Z,57.09
2022-09-28T13:19:12.754Z,56.92
2022-09-28T13:21:53.608Z,57.58
2022-09-28T13:24:43.972Z,57.54
2022-09-28T13:27:25.330Z,58.63
2022-09-28T13:30:11.063Z,60.12
2022-09-28T13:32:48.674Z,60.19
2022-09-28T13:35:30.909Z,60.29
2022-09-28T13:38:53.667Z,60.40
2022-09-28T13:41:46.440Z,60.47
2022-09-28T13:44:47.235Z,60.45
2022-09-28T13:47:31.262Z,57.24
2022-09-28T13:50:20.890Z,57.14
2022-09-28T13:53:08.393Z,55.26
2022-09-28T13:55:46.012Z,55.12
2022-09-28T13:58:38.838Z,54.24
2022-09-28T14:01:21.206Z,53.54
2022-09-28T14:04:18.697Z,53.74
2022-09-28T14:07:24.187Z,55.95
2022-09-28T14:10:26.042Z,54.83
2022-09-28T14:12:57.676Z,54.94
2022-09-28T14:15:53.474Z,56.24
2022-09-28T14:18:46.058Z,55.94
2022-09-28T14:21:59.339Z,56.51
2022-09-28T14:25:03.088Z,55.24
2022-09-28T14:28:09.081Z,55.83
2022-09-28T14:30:49.646Z,56.08
2022-09-28T14:33:26.362Z,55.35
2022-09-28T14:35:58.410Z,55.19
2022-09-28T14:38:50.144Z,55.27
2022-09-28T14:41:34.318Z,54.13
2022-09-28T14:44:09.324Z,53.84
2022-09-28T14:46:48.329Z,54.08
2022-09-28T14:49:50.454Z,54.19
2022-09-28T14:52:39.099Z,53.58
2022-09-28T14:55:15.389Z,54.11
2022-09-28T14:57:54.058Z,54.44
2022-09-28T15:00:27.354Z,55.05
2022-09-28T15:03:02.024Z,55.85
2022-09-28T15:05:37.217Z,56.92
2022-09-28T15:08:08.072Z,57.47
2022-09-28T15:10:41.831Z,57.67
2022-09-28T15:13:21.976Z,58.21
2022-09-28T15:15:53.112Z,58.43
2022-09-28T15:18:58.452Z,58.44
2022-09-28T15:21:34.806Z,58.81
2022-09-28T15:24:53.193Z,58.80
2022-09-28T15:27:55.273Z,58.65
2022-09-28T15:30:57.801Z,59.38
2022-09-28T15:34:03.190Z,60.37
2022-09-28T15:36:46.515Z,60.83
2022-09-28T15:44:50.040Z,61.72
2022-09-28T16:00:47.346Z,59.41
2022-09-28T16:07:41.657Z,58.10
2022-09-28T16:11:20.255Z,59.01
2022-09-28T16:14:44.393Z,59.52
2022-09-28T16:17:32.625Z,59.99
2022-09-28T16:29:38.254Z,61.84
2022-09-28T16:56:11.103Z,64.20
2022-09-28T16:58:45.758Z,64.38
2022-09-28T17:01:15.010Z,64.42
2022-09-28T17:03:46.934Z,64.73
2022-09-28T17:06:16.772Z,64.43
2022-09-28T17:08:54.476Z,64.41
2022-09-28T17:11:44.644Z,64.70
2022-09-28T17:14:14.414Z,65.27
2022-09-28T17:19:34.599Z,65.69
2022-09-28T17:22:15.946Z,65.78
2022-09-28T17:25:01.856Z,66.31
2022-09-28T17:27:52.161Z,66.44
2022-09-28T17:31:48.813Z,66.46
2022-09-28T17:39:50.673Z,66.97
2022-09-28T17:47:49.181Z,67.20
2022-09-28T17:51:31.427Z,67.43
2022-09-28T17:54:35.596Z,67.33
2022-09-28T18:06:30.845Z,67.71
2022-09-28T18:25:33.158Z,68.19
2022-09-28T18:28:50.199Z,68.17
2022-09-28T18:36:20.379Z,68.69
2022-09-28T18:46:59.084Z,68.60
2022-09-28T19:24:07.481Z,70.03
2022-09-28T19:27:00.037Z,69.91
2022-09-28T19:29:31.315Z,69.83
2022-09-28T19:31:59.657Z,69.91
2022-09-28T22:50:53.763Z,73.16
2022-09-28T22:53:25.063Z,73.02
2022-09-28T22:56:06.084Z,73.22
2022-09-28T22:58:34.922Z,73.02
2022-09-28T23:01:16.239Z,73.31
2022-09-28T23:07:28.648Z,73.11
2022-09-28T23:11:38.148Z,73.00
2022-09-28T23:14:19.289Z,72.89
2022-09-28T23:17:23.481Z,73.37
2022-09-28T23:21:07.230Z,73.25
2022-09-28T23:23:20.430Z,73.39
2022-09-28T23:25:55.414Z,73.08
2022-09-28T23:28:27.635Z,73.53
2022-09-28T23:31:14.202Z,73.27
2022-09-28T23:33:42.945Z,73.48
2022-09-28T23:36:12.902Z,73.26
2022-09-28T23:39:08.383Z,73.23
2022-09-28T23:41:36.854Z,73.14
2022-09-28T23:44:20.375Z,73.20
2022-09-28T23:47:17.361Z,73.31
